createdAt,value
2018-06-09T00:01:20.927Z,4.47
2018-06-09T00:03:49.931Z,6.57
2018-06-09T00:06:18.953Z,6.27
2018-06-09T00:08:47.947Z,5.40
2018-06-09T00:11:16.994Z,6.87
2018-06-09T00:13:45.969Z,4.57
2018-06-09T00:16:15.048Z,6.63
2018-06-09T00:18:44.347Z,6.27
2018-06-09T00:21:13.343Z,6.13
2018-06-09T00:23:42.475Z,6.67
2018-06-09T00:26:11.471Z,6.97
2018-06-09T00:28:40.537Z,6.20
2018-06-09T00:31:09.581Z,6.10
2018-06-09T00:33:38.608Z,7.37
2018-06-09T00:36:07.593Z,5.40
2018-06-09T00:38:36.655Z,6.33
2018-06-09T00:41:05.242Z,6.73
2018-06-09T00:43:34.246Z,10.03
2018-06-09T00:46:02.811Z,6.87
2018-06-09T00:48:32.835Z,6.13
2018-06-09T00:51:01.418Z,5.70
2018-06-09T00:53:30.432Z,6.70
2018-06-09T00:56:10.556Z,5.23
2018-06-09T00:58:39.579Z,5.83
2018-06-09T01:01:09.604Z,7.03
2018-06-09T01:03:38.639Z,6.83
2018-06-09T01:06:07.643Z,8.37
2018-06-09T01:08:36.696Z,11.33
2018-06-09T01:11:05.719Z,6.00
2018-06-09T01:13:34.771Z,5.27
2018-06-09T01:16:03.805Z,5.87
2018-06-09T01:18:32.849Z,6.93
2018-06-09T01:21:01.875Z,6.33
2018-06-09T01:23:30.937Z,6.63
2018-06-09T01:25:59.968Z,5.63
2018-06-09T01:28:28.954Z,5.33
2018-06-09T01:30:57.980Z,5.10
2018-06-09T01:33:27.012Z,5.53
2018-06-09T01:35:56.047Z,6.30
2018-06-09T01:38:25.055Z,8.67
2018-06-09T01:40:54.081Z,6.00
2018-06-09T01:43:23.198Z,6.30
2018-06-09T01:45:52.222Z,7.80
2018-06-09T01:48:21.281Z,6.03
2018-06-09T01:50:50.299Z,5.87
2018-06-09T01:53:19.335Z,5.43
2018-06-09T01:55:48.814Z,6.20
2018-06-09T01:58:18.392Z,5.90
2018-06-09T02:00:47.399Z,7.13
2018-06-09T02:03:16.468Z,5.70
2018-06-09T02:05:45.497Z,5.43
2018-06-09T02:08:14.069Z,9.73
2018-06-09T02:10:43.079Z,5.33
2018-06-09T02:13:12.124Z,6.47
2018-06-09T02:15:41.168Z,8.03
2018-06-09T02:18:10.302Z,11.23
2018-06-09T02:20:39.319Z,6.33
2018-06-09T02:23:08.359Z,6.50
2018-06-09T02:25:37.458Z,6.20
2018-06-09T02:28:06.465Z,6.07
2018-06-09T02:30:35.500Z,8.17
2018-06-09T02:33:04.056Z,6.00
2018-06-09T02:35:33.134Z,10.00
2018-06-09T02:38:02.469Z,6.30
2018-06-09T02:40:31.497Z,6.63
2018-06-09T02:43:00.522Z,8.00
2018-06-09T02:45:29.569Z,9.73
2018-06-09T02:47:58.626Z,6.40
2018-06-09T02:50:27.619Z,10.67
2018-06-09T02:52:56.662Z,11.23
2018-06-09T02:55:25.682Z,9.83
2018-06-09T02:57:54.827Z,7.47
2018-06-09T03:00:24.163Z,10.83
2018-06-09T03:02:53.839Z,8.57
2018-06-09T03:05:22.991Z,9.20
2018-06-09T03:07:52.018Z,9.97
2018-06-09T03:10:21.099Z,10.63
2018-06-09T03:12:50.155Z,10.20
2018-06-09T03:15:19.220Z,11.97
2018-06-09T03:17:48.216Z,8.63
2018-06-09T03:20:17.267Z,11.97
2018-06-09T03:22:46.268Z,11.57
2018-06-09T03:25:15.310Z,13.17
2018-06-09T03:27:44.338Z,12.30
2018-06-09T03:30:13.404Z,14.43
2018-06-09T03:32:42.815Z,14.67
2018-06-09T03:35:11.861Z,11.80
2018-06-09T03:37:40.923Z,13.80
2018-06-09T03:40:09.951Z,14.00
2018-06-09T03:42:39.004Z,13.23
2018-06-09T03:45:08.031Z,15.13
2018-06-09T03:47:37.080Z,14.37
2018-06-09T03:50:06.104Z,14.03
2018-06-09T03:52:35.151Z,13.57
2018-06-09T03:55:04.169Z,13.90
2018-06-09T03:57:33.744Z,14.20
2018-06-09T04:00:02.815Z,16.40
2018-06-09T04:02:31.839Z,14.80
2018-06-09T04:05:00.904Z,10.40
2018-06-09T04:07:29.923Z,18.33
2018-06-09T04:09:58.954Z,11.30
2018-06-09T04:12:28.550Z,10.10
2018-06-09T04:14:57.639Z,12.00
2018-06-09T04:17:26.685Z,12.87
2018-06-09T04:19:55.739Z,9.10
2018-06-09T04:22:24.279Z,10.00
2018-06-09T04:24:53.355Z,13.90
2018-06-09T04:27:22.547Z,14.30
2018-06-09T04:29:51.575Z,10.70
2018-06-09T04:32:20.790Z,11.30
2018-06-09T04:34:49.787Z,13.07
2018-06-09T04:37:18.363Z,10.50
2018-06-09T04:39:47.405Z,9.70
2018-06-09T04:42:16.438Z,9.37
2018-06-09T04:44:45.450Z,9.73
2018-06-09T04:47:14.472Z,8.87
2018-06-09T04:49:43.514Z,9.00
2018-06-09T04:52:12.547Z,9.07
2018-06-09T04:54:41.572Z,10.40
2018-06-09T04:57:10.602Z,15.33
2018-06-09T04:59:39.629Z,12.07
2018-06-09T05:02:08.632Z,9.47
2018-06-09T05:04:37.671Z,7.90
2018-06-09T05:07:06.699Z,9.50
2018-06-09T05:09:35.781Z,12.27
2018-06-09T05:12:04.844Z,11.20
2018-06-09T05:14:33.891Z,14.50
2018-06-09T05:17:02.988Z,8.90
2018-06-09T05:19:31.989Z,8.43
2018-06-09T05:22:01.074Z,12.13
2018-06-09T05:24:30.231Z,9.60
2018-06-09T05:26:59.291Z,8.50
2018-06-09T05:29:28.280Z,8.80
2018-06-09T05:31:57.312Z,10.30
2018-06-09T05:34:26.352Z,10.17
2018-06-09T05:36:55.434Z,10.17
2018-06-09T05:39:24.454Z,7.00
2018-06-09T05:41:53.459Z,7.10
2018-06-09T05:44:22.480Z,8.43
2018-06-09T05:46:51.498Z,10.73
2018-06-09T05:49:20.578Z,14.40
2018-06-09T05:51:49.579Z,6.97
2018-06-09T05:54:18.618Z,6.70
2018-06-09T05:56:47.609Z,7.80
2018-06-09T05:59:16.646Z,7.43
2018-06-09T06:01:45.717Z,11.67
2018-06-09T06:04:14.728Z,7.00
2018-06-09T06:06:43.762Z,11.33
2018-06-09T06:09:13.112Z,7.50
2018-06-09T06:11:42.146Z,7.83
2018-06-09T06:14:11.247Z,8.20
2018-06-09T06:16:40.345Z,5.70
2018-06-09T06:19:09.335Z,7.10
2018-06-09T06:21:38.447Z,7.23
2018-06-09T06:24:07.458Z,9.03
2018-06-09T06:26:36.517Z,8.40
2018-06-09T06:29:05.615Z,6.50
2018-06-09T06:31:34.671Z,9.40
2018-06-09T06:34:03.749Z,5.80
2018-06-09T06:36:32.842Z,8.10
2018-06-09T06:39:01.889Z,5.27
2018-06-09T06:41:31.167Z,10.57
2018-06-09T06:44:00.202Z,6.07
2018-06-09T06:46:29.515Z,6.10
2018-06-09T06:48:58.615Z,6.70
2018-06-09T06:51:27.654Z,7.00
2018-06-09T06:53:56.697Z,6.40
2018-06-09T06:56:25.736Z,6.80
2018-06-09T06:58:54.764Z,8.00
2018-06-09T07:01:23.776Z,6.87
2018-06-09T07:03:52.839Z,6.23
2018-06-09T07:06:22.744Z,8.27
2018-06-09T07:08:51.955Z,8.57
2018-06-09T07:11:21.509Z,7.27
2018-06-09T07:13:50.727Z,9.30
2018-06-09T07:16:19.987Z,7.20
2018-06-09T07:18:49.008Z,9.47
2018-06-09T07:21:18.044Z,6.53
2018-06-09T07:23:46.638Z,9.50
2018-06-09T07:26:15.715Z,9.40
2018-06-09T07:28:44.720Z,8.80
2018-06-09T07:31:13.812Z,7.63
2018-06-09T07:33:42.866Z,7.30
2018-06-09T07:36:11.955Z,8.00
2018-06-09T07:38:40.985Z,7.10
2018-06-09T07:41:10.072Z,7.73
2018-06-09T07:43:39.148Z,7.53
2018-06-09T07:46:08.354Z,10.67
2018-06-09T07:48:37.587Z,8.83
2018-06-09T07:51:06.624Z,8.60
2018-06-09T07:53:36.250Z,12.73
2018-06-09T07:56:05.311Z,8.87
2018-06-09T07:58:35.413Z,7.10
2018-06-09T08:01:04.452Z,7.60
2018-06-09T08:03:33.599Z,9.63
2018-06-09T08:06:02.699Z,9.33
2018-06-09T08:08:31.951Z,9.40
2018-06-09T08:11:01.064Z,10.93
2018-06-09T08:13:30.202Z,11.67
2018-06-09T08:15:59.342Z,11.10
2018-06-09T08:18:28.530Z,9.73
2018-06-09T08:20:57.605Z,9.37
2018-06-09T08:23:26.642Z,14.27
2018-06-09T08:25:55.693Z,12.03
2018-06-09T08:28:24.718Z,16.77
2018-06-09T08:30:53.770Z,12.97
2018-06-09T08:33:22.806Z,15.07
2018-06-09T08:35:51.847Z,14.23
2018-06-09T08:38:20.884Z,11.40
2018-06-09T08:40:49.951Z,12.10
2018-06-09T08:43:18.942Z,12.37
2018-06-09T08:45:47.999Z,12.50
2018-06-09T08:48:17.231Z,12.87
2018-06-09T08:50:46.271Z,12.37
2018-06-09T08:53:15.283Z,14.37
2018-06-09T08:55:44.354Z,13.80
2018-06-09T08:58:13.372Z,12.67
2018-06-09T09:00:42.420Z,11.40
2018-06-09T09:03:11.470Z,12.67
2018-06-09T09:05:40.548Z,9.77
2018-06-09T09:08:09.591Z,10.67
2018-06-09T09:10:38.675Z,12.97
2018-06-09T09:13:07.733Z,13.77
2018-06-09T09:15:36.804Z,12.93
2018-06-09T09:18:05.920Z,12.60
2018-06-09T09:20:34.984Z,10.80
2018-06-09T09:23:04.137Z,9.33
2018-06-09T09:25:33.136Z,9.00
2018-06-09T09:28:02.208Z,9.17
2018-06-09T09:30:31.249Z,9.63
2018-06-09T09:33:00.259Z,9.77
2018-06-09T09:35:29.318Z,9.83
2018-06-09T09:37:58.315Z,9.47
2018-06-09T09:40:27.413Z,9.03
2018-06-09T09:42:56.412Z,10.70
2018-06-09T09:45:25.468Z,9.77
2018-06-09T09:47:54.512Z,9.23
2018-06-09T09:50:23.551Z,8.63
2018-06-09T09:52:52.564Z,11.70
2018-06-09T09:55:21.663Z,9.20
2018-06-09T09:58:00.083Z,8.97
2018-06-09T10:00:34.454Z,8.83
2018-06-09T10:03:03.485Z,9.13
2018-06-09T10:05:32.543Z,8.47
2018-06-09T10:08:01.557Z,8.17
2018-06-09T10:10:30.631Z,8.50
2018-06-09T10:12:59.643Z,9.30
2018-06-09T10:15:28.182Z,8.73
2018-06-09T10:17:57.251Z,8.80
2018-06-09T10:20:26.291Z,8.27
2018-06-09T10:22:55.367Z,9.47
2018-06-09T10:25:24.952Z,8.37
2018-06-09T10:27:53.987Z,10.40
2018-06-09T10:30:23.021Z,9.53
2018-06-09T10:32:52.091Z,10.50
2018-06-09T10:35:21.102Z,8.87
2018-06-09T10:37:50.091Z,10.67
2018-06-09T10:40:19.142Z,10.30
2018-06-09T10:42:48.156Z,10.10
2018-06-09T10:45:17.265Z,10.30
2018-06-09T10:47:46.317Z,8.10
2018-06-09T10:50:15.332Z,7.23
2018-06-09T10:52:44.331Z,8.13
2018-06-09T10:55:13.358Z,11.40
2018-06-09T10:57:42.339Z,9.77
2018-06-09T11:00:12.534Z,9.00
2018-06-09T11:02:41.678Z,10.90
2018-06-09T11:05:14.971Z,8.03
2018-06-09T11:07:44.258Z,8.53
2018-06-09T11:10:13.354Z,12.83
2018-06-09T11:12:42.483Z,8.87
2018-06-09T11:15:12.826Z,9.13
2018-06-09T11:17:42.768Z,15.20
2018-06-09T11:20:11.949Z,13.10
2018-06-09T11:22:41.008Z,9.60
2018-06-09T11:25:10.013Z,9.70
2018-06-09T11:27:39.039Z,9.10
2018-06-09T11:30:08.059Z,10.27
2018-06-09T11:32:37.182Z,10.70
2018-06-09T11:35:06.315Z,8.73
2018-06-09T11:37:35.370Z,10.77
2018-06-09T11:40:04.002Z,8.67
2018-06-09T11:42:33.324Z,8.73
2018-06-09T11:45:02.370Z,10.50
2018-06-09T11:47:31.377Z,8.73
2018-06-09T11:50:00.442Z,9.30
2018-06-09T11:52:29.459Z,9.80
2018-06-09T11:54:58.531Z,11.93
2018-06-09T11:57:27.527Z,8.10
2018-06-09T11:59:56.610Z,9.23
2018-06-09T12:02:25.630Z,10.27
2018-06-09T12:04:55.375Z,9.30
2018-06-09T12:07:24.407Z,10.40
2018-06-09T12:09:53.440Z,10.47
2018-06-09T12:12:23.821Z,12.53
2018-06-09T12:14:52.927Z,7.77
2018-06-09T12:17:22.152Z,10.33
2018-06-09T12:19:51.588Z,8.93
2018-06-09T12:22:20.678Z,10.10
2018-06-09T12:24:49.826Z,9.03
2018-06-09T12:27:20.135Z,8.97
2018-06-09T12:29:49.279Z,9.57
2018-06-09T12:32:18.805Z,10.20
2018-06-09T12:34:48.114Z,8.60
2018-06-09T12:37:17.508Z,9.53
2018-06-09T12:39:47.222Z,10.67
2018-06-09T12:42:15.817Z,8.80
2018-06-09T12:44:45.544Z,12.17
2018-06-09T12:47:15.245Z,8.23
2018-06-09T12:49:45.625Z,9.63
2018-06-09T12:52:14.824Z,10.33
2018-06-09T12:54:44.803Z,9.27
2018-06-09T12:57:13.863Z,8.00
2018-06-09T12:59:42.882Z,11.50
2018-06-09T13:02:12.306Z,9.50
2018-06-09T13:04:41.347Z,10.77
2018-06-09T13:07:10.414Z,7.97
2018-06-09T13:09:39.674Z,10.27
2018-06-09T13:12:08.710Z,9.83
2018-06-09T13:14:37.728Z,9.80
2018-06-09T13:17:06.809Z,11.47
2018-06-09T13:19:35.408Z,9.53
2018-06-09T13:22:04.501Z,9.70
2018-06-09T13:24:33.529Z,7.63
2018-06-09T13:27:02.579Z,7.70
2018-06-09T13:29:31.616Z,9.87
2018-06-09T13:32:00.662Z,10.27
2018-06-09T13:34:29.776Z,8.93
2018-06-09T13:36:58.790Z,12.63
2018-06-09T13:39:27.838Z,10.13
2018-06-09T13:41:56.855Z,8.83
2018-06-09T13:44:25.951Z,9.80
2018-06-09T13:46:55.119Z,8.03
2018-06-09T13:49:24.116Z,10.80
2018-06-09T13:51:53.467Z,11.57
2018-06-09T13:54:22.620Z,9.57
2018-06-09T13:56:51.698Z,8.30
2018-06-09T13:59:20.799Z,9.47
2018-06-09T14:01:49.825Z,7.53
2018-06-09T14:04:18.883Z,7.87
2018-06-09T14:06:48.016Z,10.90
2018-06-09T14:09:17.043Z,9.50
2018-06-09T14:11:46.093Z,7.57
2018-06-09T14:14:15.128Z,9.70
2018-06-09T14:16:44.247Z,8.93
2018-06-09T14:19:13.236Z,12.03
2018-06-09T14:21:42.284Z,8.27
2018-06-09T14:24:11.428Z,8.50
2018-06-09T14:26:40.515Z,7.83
2018-06-09T14:29:09.578Z,9.03
2018-06-09T14:31:38.604Z,8.33
2018-06-09T14:34:07.640Z,7.73
2018-06-09T14:36:36.703Z,8.93
2018-06-09T14:39:07.984Z,8.87
2018-06-09T14:41:37.007Z,10.33
2018-06-09T14:44:06.087Z,7.67
2018-06-09T14:46:35.141Z,7.57
2018-06-09T14:49:04.186Z,12.50
2018-06-09T14:51:33.198Z,8.07
2018-06-09T14:54:02.226Z,9.83
2018-06-09T14:56:31.711Z,8.03
2018-06-09T14:59:00.705Z,7.97
2018-06-09T15:01:29.751Z,8.73
2018-06-09T15:03:58.727Z,10.10
2018-06-09T15:06:27.779Z,8.10
2018-06-09T15:08:56.792Z,11.43
2018-06-09T15:11:25.886Z,9.80
2018-06-09T15:13:54.911Z,8.57
2018-06-09T15:16:24.017Z,10.20
2018-06-09T15:18:53.194Z,10.23
2018-06-09T15:21:22.554Z,6.10
2018-06-09T15:23:51.607Z,8.60
2018-06-09T15:26:20.601Z,7.90
2018-06-09T15:28:49.209Z,11.90
2018-06-09T15:31:18.219Z,8.37
2018-06-09T15:33:47.913Z,8.47
2018-06-09T15:36:17.116Z,10.03
2018-06-09T15:38:46.385Z,16.67
2018-06-09T15:41:15.694Z,7.87
2018-06-09T15:43:45.081Z,11.83
2018-06-09T15:46:14.401Z,9.23
2018-06-09T15:48:44.329Z,10.43
2018-06-09T15:51:13.919Z,9.40
2018-06-09T15:53:42.933Z,8.57
2018-06-09T15:56:11.979Z,11.10
2018-06-09T15:58:40.549Z,9.90
2018-06-09T16:01:09.576Z,9.93
2018-06-09T16:03:38.624Z,16.17
2018-06-09T16:06:07.706Z,19.47
2018-06-09T16:08:36.947Z,19.83
2018-06-09T16:11:06.926Z,15.17
2018-06-09T16:13:36.040Z,18.87
2018-06-09T16:16:05.314Z,17.40
2018-06-09T16:18:34.449Z,17.90
2018-06-09T16:21:03.503Z,19.60
2018-06-09T16:23:32.659Z,15.60
2018-06-09T16:26:01.704Z,18.20
2018-06-09T16:28:30.785Z,25.10
2018-06-09T16:30:59.835Z,27.53
2018-06-09T16:33:28.907Z,15.93
2018-06-09T16:35:57.916Z,28.03
2018-06-09T16:38:26.961Z,23.10
2018-06-09T16:40:56.976Z,21.63
2018-06-09T16:43:26.047Z,21.23
2018-06-09T16:45:55.098Z,25.20
2018-06-09T16:48:24.159Z,36.53
2018-06-09T16:50:53.215Z,30.87
2018-06-09T16:53:22.263Z,28.00
2018-06-09T16:55:51.322Z,30.73
2018-06-09T16:58:20.338Z,22.93
2018-06-09T17:00:49.391Z,25.77
2018-06-09T17:03:18.384Z,20.53
2018-06-09T17:05:47.453Z,24.03
2018-06-09T17:08:16.509Z,28.30
2018-06-09T17:10:45.608Z,36.47
2018-06-09T17:13:14.619Z,33.73
2018-06-09T17:15:43.651Z,41.80
2018-06-09T17:18:12.742Z,27.67
2018-06-09T17:20:41.791Z,29.97
2018-06-09T17:23:10.851Z,27.63
2018-06-09T17:25:39.993Z,28.27
2018-06-09T17:28:10.072Z,21.40
2018-06-09T17:30:39.155Z,25.63
2018-06-09T17:33:08.188Z,27.27
2018-06-09T17:35:37.230Z,33.37
2018-06-09T17:38:06.247Z,30.73
2018-06-09T17:40:35.299Z,34.13
2018-06-09T17:43:04.398Z,33.30
2018-06-09T17:45:33.757Z,29.80
2018-06-09T17:48:02.798Z,44.60
2018-06-09T17:50:31.898Z,43.93
2018-06-09T17:53:01.059Z,34.10
2018-06-09T17:55:30.196Z,30.67
2018-06-09T17:57:59.271Z,34.33
2018-06-09T18:00:28.335Z,37.63
2018-06-09T18:02:57.378Z,49.90
2018-06-09T18:05:26.409Z,49.20
2018-06-09T18:07:55.470Z,25.70
2018-06-09T18:10:24.518Z,22.73
2018-06-09T18:12:53.576Z,28.13
2018-06-09T18:15:22.608Z,29.00
2018-06-09T18:17:51.704Z,21.77
2018-06-09T18:20:20.757Z,30.90
2018-06-09T18:22:49.835Z,27.23
2018-06-09T18:25:18.906Z,21.57
2018-06-09T18:27:47.988Z,24.10
2018-06-09T18:30:17.291Z,20.43
2018-06-09T18:32:46.343Z,27.53
2018-06-09T18:35:15.434Z,28.33
2018-06-09T18:37:44.507Z,26.10
2018-06-09T18:40:13.536Z,25.40
2018-06-09T18:42:42.644Z,29.00
2018-06-09T18:45:11.696Z,27.90
2018-06-09T18:47:40.733Z,37.87
2018-06-09T18:50:09.868Z,58.80
2018-06-09T18:52:38.965Z,41.07
2018-06-09T18:55:08.037Z,39.60
2018-06-09T18:57:37.128Z,40.23
2018-06-09T19:00:06.447Z,38.93
2018-06-09T19:02:35.486Z,29.47
2018-06-09T19:05:04.705Z,36.97
2018-06-09T19:07:33.890Z,24.33
2018-06-09T19:10:02.877Z,30.53
2018-06-09T19:12:31.927Z,24.13
2018-06-09T19:15:00.971Z,23.00
2018-06-09T19:17:30.061Z,28.80
2018-06-09T19:19:59.137Z,27.57
2018-06-09T19:22:28.938Z,29.40
2018-06-09T19:24:57.999Z,26.97
2018-06-09T19:27:27.021Z,28.63
2018-06-09T19:29:56.106Z,35.07
2018-06-09T19:32:25.107Z,33.57
2018-06-09T19:34:54.157Z,23.90
2018-06-09T19:37:23.188Z,34.60
2018-06-09T19:39:52.215Z,28.73
2018-06-09T19:42:21.228Z,27.13
2018-06-09T19:44:50.286Z,29.30
2018-06-09T19:47:19.326Z,33.27
2018-06-09T19:49:48.344Z,25.40
2018-06-09T19:52:17.393Z,26.87
2018-06-09T19:54:46.807Z,29.00
2018-06-09T19:57:15.879Z,24.13
2018-06-09T19:59:44.896Z,26.37
2018-06-09T20:02:13.964Z,22.47
2018-06-09T20:04:42.984Z,25.37
2018-06-09T20:07:12.023Z,26.03
2018-06-09T20:09:41.059Z,27.60
2018-06-09T20:12:10.147Z,38.67
2018-06-09T20:14:39.281Z,40.37
2018-06-09T20:17:08.298Z,36.40
2018-06-09T20:19:37.382Z,38.33
2018-06-09T20:22:06.535Z,30.03
2018-06-09T20:24:35.578Z,28.77
2018-06-09T20:27:04.647Z,20.63
2018-06-09T20:29:33.643Z,23.83
2018-06-09T20:32:02.768Z,37.70
2018-06-09T20:34:31.806Z,28.80
2018-06-09T20:37:00.891Z,32.60
2018-06-09T20:39:30.233Z,30.30
2018-06-09T20:41:59.308Z,26.93
2018-06-09T20:44:28.454Z,34.20
2018-06-09T20:46:57.588Z,29.03
2018-06-09T20:49:26.676Z,23.60
2018-06-09T20:51:55.779Z,25.70
2018-06-09T20:54:24.890Z,31.17
2018-06-09T20:56:53.924Z,32.00
2018-06-09T20:59:22.991Z,35.47
2018-06-09T21:01:52.946Z,29.50
2018-06-09T21:04:22.084Z,27.50
2018-06-09T21:06:51.294Z,33.07
2018-06-09T21:09:20.338Z,42.43
2018-06-09T21:11:49.385Z,36.07
2018-06-09T21:14:18.472Z,26.30
2018-06-09T21:16:47.535Z,41.30
2018-06-09T21:19:16.637Z,42.43
2018-06-09T21:21:45.688Z,36.57
2018-06-09T21:24:14.253Z,49.60
2018-06-09T21:26:48.604Z,31.77
2018-06-09T21:29:22.659Z,51.03
2018-06-09T21:31:51.707Z,31.30
2018-06-09T21:34:32.610Z,54.80
2018-06-09T21:37:06.909Z,36.80
2018-06-09T21:39:41.550Z,35.23
2018-06-09T21:42:15.602Z,55.60
2018-06-09T21:44:52.673Z,35.37
2018-06-09T21:47:21.798Z,42.60
2018-06-09T21:49:50.946Z,48.40
2018-06-09T21:52:19.965Z,32.60
2018-06-09T21:54:49.072Z,35.60
2018-06-09T21:57:18.107Z,31.40
2018-06-09T21:59:47.188Z,34.80
2018-06-09T22:02:16.234Z,45.90
2018-06-09T22:04:45.284Z,33.97
2018-06-09T22:07:14.348Z,39.00
2018-06-09T22:09:43.359Z,31.07
2018-06-09T22:12:12.431Z,29.17
2018-06-09T22:14:41.530Z,49.07
2018-06-09T22:17:10.616Z,45.90
2018-06-09T22:19:39.695Z,48.57
2018-06-09T22:22:08.869Z,42.57
2018-06-09T22:24:37.935Z,45.17
2018-06-09T22:27:06.955Z,37.83
2018-06-09T22:29:36.030Z,47.33
2018-06-09T22:32:05.052Z,52.30
2018-06-09T22:34:34.084Z,49.20
2018-06-09T22:37:03.219Z,40.90
2018-06-09T22:39:32.314Z,43.60
2018-06-09T22:42:01.376Z,55.23
2018-06-09T22:44:30.490Z,47.90
2018-06-09T22:46:59.616Z,55.30
2018-06-09T22:49:28.702Z,46.93
2018-06-09T22:51:57.754Z,46.50
2018-06-09T22:54:26.765Z,51.27
2018-06-09T22:56:55.785Z,44.93
2018-06-09T22:59:24.773Z,41.47
2018-06-09T23:01:53.825Z,39.47
2018-06-09T23:04:22.877Z,47.70
2018-06-09T23:06:52.754Z,30.40
2018-06-09T23:09:21.891Z,32.77
2018-06-09T23:11:50.903Z,25.13
2018-06-09T23:14:19.962Z,40.87
2018-06-09T23:16:48.954Z,23.13
2018-06-09T23:19:18.010Z,29.07
2018-06-09T23:21:47.131Z,23.40
2018-06-09T23:24:16.171Z,37.63
2018-06-09T23:26:45.188Z,25.90
2018-06-09T23:29:14.194Z,29.00
2018-06-09T23:31:43.224Z,26.13
2018-06-09T23:34:12.241Z,40.27
2018-06-09T23:36:41.872Z,35.20
2018-06-09T23:39:10.874Z,34.77
2018-06-09T23:41:39.916Z,43.30
2018-06-09T23:44:08.920Z,35.50
2018-06-09T23:46:37.935Z,24.50
2018-06-09T23:49:06.936Z,31.13
2018-06-09T23:51:35.992Z,31.27
2018-06-09T23:54:05.066Z,28.77
2018-06-09T23:56:34.110Z,29.70
2018-06-09T23:59:04.068Z,27.07
